Big Bear Station Historical Data
Daily Summary for June 10, 2017 Units:  English    Metric   Both
« Previous Day
Next Day »
Daily Weekly Monthly Yearly Custom
  High: Low: Average:
Temperature: 71.1 °F 46.2 °F 56.5 °F
Dew Point: 47.0 °F 9.3 °F 27.7 °F
Humidity: 60 % 18 % 35 %
Wind Speed: 9.4 mph 0.0 mph 2.7 mph
Wind Gust: -999.0 mph - -
Wind:- - WSW
Pressure: 30.08 in 30.00 in -
Precipitation: 0.00 in    
Historical Graphs
 
 
Tabular Data for June 10, 2017
Time Temperature Dew Point Pressure Wind Wind Speed Wind Gust Humidity Rainfall Rate (Hourly)
00:06 50.5 °F 17.7 °F 30.08 in Calm   -999.0 mph 27 % 0 in
00:21 50.4 °F 16.8 °F 30.08 in West 1.7 mph -999.0 mph 26 % 0 in
00:36 50.0 °F 14.6 °F 30.08 in South 1.7 mph -999.0 mph 24 % 0 in
00:51 48.7 °F 16.2 °F 30.08 in South 2.2 mph -999.0 mph 27 % 0 in
01:06 47.8 °F 15.4 °F 30.07 in Calm   -999.0 mph 27 % 0 in
01:22 47.7 °F 13.6 °F 30.07 in ESE 1.7 mph -999.0 mph 25 % 0 in
01:37 47.5 °F 15.1 °F 30.06 in SSE 1.7 mph -999.0 mph 27 % 0 in
01:52 46.9 °F 15.5 °F 30.06 in South 1.7 mph -999.0 mph 28 % 0 in
02:07 46.9 °F 12.9 °F 30.06 in ESE 2.2 mph -999.0 mph 25 % 0 in
02:23 46.9 °F 12.9 °F 30.06 in SE 1.1 mph -999.0 mph 25 % 0 in
02:54 46.9 °F 14.6 °F 30.06 in Calm   -999.0 mph 27 % 0 in
03:09 46.6 °F 12.6 °F 30.05 in Calm   -999.0 mph 25 % 0 in
03:24 46.9 °F 11.9 °F 30.05 in South 1.7 mph -999.0 mph 24 % 0 in
03:39 47.1 °F 13.0 °F 30.05 in ESE 1.7 mph -999.0 mph 25 % 0 in
03:55 47.1 °F 14.8 °F 30.05 in SSE 2.2 mph -999.0 mph 27 % 0 in
04:10 47.7 °F 15.3 °F 30.05 in South 1.1 mph -999.0 mph 27 % 0 in
04:25 47.5 °F 13.4 °F 30.05 in South 1.1 mph -999.0 mph 25 % 0 in
04:40 47.3 °F 14.1 °F 30.04 in South 1.7 mph -999.0 mph 26 % 0 in
04:55 46.9 °F 13.8 °F 30.04 in South 2.7 mph -999.0 mph 26 % 0 in
05:11 47.1 °F 12.1 °F 30.05 in South 3.2 mph -999.0 mph 24 % 0 in
05:26 47.5 °F 11.5 °F 30.04 in South 2.2 mph -999.0 mph 23 % 0 in
05:41 47.1 °F 10.2 °F 30.04 in SSW 2.7 mph -999.0 mph 22 % 0 in
05:56 47.3 °F 9.3 °F 30.04 in SSE 1.1 mph -999.0 mph 21 % 0 in
06:11 46.4 °F 11.5 °F 30.04 in Calm   -999.0 mph 24 % 0 in
06:27 46.2 °F 13.2 °F 30.04 in Calm   -999.0 mph 26 % 0 in
06:42 47.5 °F 14.3 °F 30.04 in Calm   -999.0 mph 26 % 0 in
06:57 50.0 °F 14.6 °F 30.04 in NNE 1.7 mph -999.0 mph 24 % 0 in
07:12 50.9 °F 14.4 °F 30.04 in SW 1.7 mph -999.0 mph 23 % 0 in
07:27 52.2 °F 12.3 °F 30.04 in SSW 1.1 mph -999.0 mph 20 % 0 in
07:58 54.1 °F 12.7 °F 30.04 in North 2.2 mph -999.0 mph 19 % 0 in
08:13 55.6 °F 15.1 °F 30.04 in NW 1.1 mph -999.0 mph 20 % 0 in
08:28 56.5 °F 14.7 °F 30.04 in NNW 3.7 mph -999.0 mph 19 % 0 in
08:44 57.0 °F 15.1 °F 30.05 in West 1.7 mph -999.0 mph 19 % 0 in
08:59 57.9 °F 17.0 °F 30.04 in WSW 3.7 mph -999.0 mph 20 % 0 in
09:15 58.8 °F 15.3 °F 30.05 in West 2.2 mph -999.0 mph 18 % 0 in
09:30 59.7 °F 17.3 °F 30.05 in WNW 4.2 mph -999.0 mph 19 % 0 in
09:45 60.6 °F 19.3 °F 30.05 in West 4.7 mph -999.0 mph 20 % 0 in
10:00 61.7 °F 22.4 °F 30.05 in NW 4.7 mph -999.0 mph 22 % 0 in
10:16 62.1 °F 24.9 °F 30.04 in NNW 4.2 mph -999.0 mph 24 % 0 in
10:31 62.6 °F 29.0 °F 30.04 in NW 4.7 mph -999.0 mph 28 % 0 in
10:46 63.0 °F 31.1 °F 30.05 in NW 5.8 mph -999.0 mph 30 % 0 in
11:02 63.9 °F 34.2 °F 30.04 in NW 4.7 mph -999.0 mph 33 % 0 in
11:17 64.6 °F 38.4 °F 30.05 in NNW 4.7 mph -999.0 mph 38 % 0 in
11:32 66.0 °F 41.0 °F 30.05 in West 3.2 mph -999.0 mph 40 % 0 in
11:47 68.2 °F 43.6 °F 30.05 in NW 4.2 mph -999.0 mph 41 % 0 in
12:03 68.9 °F 43.6 °F 30.05 in WNW 5.8 mph -999.0 mph 40 % 0 in
12:19 70.7 °F 43.9 °F 30.05 in NNW 5.8 mph -999.0 mph 38 % 0 in
12:34 70.9 °F 43.3 °F 30.05 in West 3.7 mph -999.0 mph 37 % 0 in
12:49 70.3 °F 41.4 °F 30.05 in NE 5.8 mph -999.0 mph 35 % 0 in
13:04 71.1 °F 38.1 °F 30.05 in NW 5.3 mph -999.0 mph 30 % 0 in
13:19 70.9 °F 39.6 °F 30.05 in NW 4.7 mph -999.0 mph 32 % 0 in
13:35 70.2 °F 39.7 °F 30.05 in WNW 5.3 mph -999.0 mph 33 % 0 in
13:50 68.0 °F 36.2 °F 30.05 in NW 4.7 mph -999.0 mph 31 % 0 in
14:05 68.5 °F 35.0 °F 30.05 in NW 5.8 mph -999.0 mph 29 % 0 in
14:20 69.6 °F 36.8 °F 30.05 in NNW 5.3 mph -999.0 mph 30 % 0 in
14:36 68.4 °F 34.0 °F 30.04 in WNW 5.8 mph -999.0 mph 28 % 0 in
14:51 67.5 °F 35.8 °F 30.04 in NNW 7.3 mph -999.0 mph 31 % 0 in
15:06 66.0 °F 32.0 °F 30.04 in South 4.2 mph -999.0 mph 28 % 0 in
15:21 64.6 °F 30.7 °F 30.04 in North 4.7 mph -999.0 mph 28 % 0 in
15:37 64.2 °F 31.3 °F 30.03 in WNW 4.7 mph -999.0 mph 29 % 0 in
15:52 63.3 °F 33.7 °F 30.03 in NW 6.3 mph -999.0 mph 33 % 0 in
16:07 64.8 °F 35.0 °F 30.02 in NNW 3.7 mph -999.0 mph 33 % 0 in
16:23 65.5 °F 36.4 °F 30.02 in NW 9.4 mph -999.0 mph 34 % 0 in
16:38 66.2 °F 37.7 °F 30.02 in NW 5.8 mph -999.0 mph 35 % 0 in
16:53 63.5 °F 39.4 °F 30.02 in NW 4.7 mph -999.0 mph 41 % 0 in
17:09 61.9 °F 42.0 °F 30.02 in WNW 4.7 mph -999.0 mph 48 % 0 in
17:24 60.6 °F 41.3 °F 30.02 in South 2.7 mph -999.0 mph 49 % 0 in
17:39 61.9 °F 43.1 °F 30.02 in WNW 2.2 mph -999.0 mph 50 % 0 in
17:54 60.3 °F 43.6 °F 30.02 in SE 1.7 mph -999.0 mph 54 % 0 in
18:09 61.5 °F 45.2 °F 30.02 in SW 2.7 mph -999.0 mph 55 % 0 in
18:25 61.5 °F 47.0 °F 30.02 in NNW 4.2 mph -999.0 mph 59 % 0 in
18:40 62.6 °F 46.2 °F 30.02 in NW 3.7 mph -999.0 mph 55 % 0 in
18:55 60.1 °F 46.2 °F 30.02 in NW 4.7 mph -999.0 mph 60 % 0 in
19:11 60.4 °F 46.0 °F 30.02 in NW 2.2 mph -999.0 mph 59 % 0 in
19:26 57.9 °F 44.1 °F 30.02 in WNW 3.2 mph -999.0 mph 60 % 0 in
19:41 55.8 °F 41.2 °F 30.02 in Calm   -999.0 mph 58 % 0 in
19:56 54.9 °F 39.0 °F 30.02 in Calm   -999.0 mph 55 % 0 in
20:12 54.3 °F 35.5 °F 30.01 in ESE 1.1 mph -999.0 mph 49 % 0 in
20:27 53.8 °F 34.6 °F 30.02 in Calm   -999.0 mph 48 % 0 in
20:42 52.9 °F 33.7 °F 30.02 in Calm   -999.0 mph 48 % 0 in
20:57 52.3 °F 32.7 °F 30.02 in Calm   -999.0 mph 47 % 0 in
21:12 51.6 °F 31.5 °F 30.02 in SE 2.2 mph -999.0 mph 46 % 0 in
21:28 51.3 °F 31.2 °F 30.01 in East 1.7 mph -999.0 mph 46 % 0 in
21:44 51.3 °F 30.1 °F 30.02 in Calm   -999.0 mph 44 % 0 in
21:59 50.7 °F 29.6 °F 30.02 in Calm   -999.0 mph 44 % 0 in
22:14 50.4 °F 29.3 °F 30.02 in Calm   -999.0 mph 44 % 0 in
22:29 50.0 °F 34.5 °F 30.02 in NW 1.1 mph -999.0 mph 55 % 0 in
22:44 50.0 °F 35.4 °F 30.02 in South 2.7 mph -999.0 mph 57 % 0 in
23:00 49.6 °F 34.5 °F 30.02 in Calm   -999.0 mph 56 % 0 in
23:15 49.3 °F 33.8 °F 30.02 in Calm   -999.0 mph 55 % 0 in
23:30 48.6 °F 32.7 °F 30.01 in SSE 2.2 mph -999.0 mph 54 % 0 in
23:45 48.0 °F 30.2 °F 30.00 in Calm   -999.0 mph 50 % 0 in
Big Bear CA Weather
Compliments of Weather Underground - 1.5 mb